OVA32C LEBB-LEBL
Flight info
| Callsign | OVA32C |
|---|---|
| Flight time | N/A |
| Altitude | 28000 |
| Route | PPN M601 TURPU/N0448F300 M601 GRAUS |
| Aircraft | B738/M-SDE2E3FGHIRWXY/LB1 |
Departure
| Time | 2026-05-05 18:33 |
|---|---|
| Airport | Bilbao Airport (LEBB) |
Arrival
| Time | N/A |
|---|---|
| Airport | Josep Tarradellas Barcelona-El Prat Airport (LEBL) |
| Time | Latitude | Longitude | Altitude | Speed | Heading |
|---|---|---|---|---|---|
| 2026-05-05 17:42 | 43.30406 | -2.90580 | 131 ft | 0 kts | 26° |
| 2026-05-05 17:43 | 43.30442 | -2.90687 | 131 ft | 0 kts | 26° |
| 2026-05-05 18:14 | 43.30429 | -2.90697 | 131 ft | 4 kts | 31° |
| 2026-05-05 18:14 | 43.30407 | -2.90718 | 131 ft | 4 kts | 49° |
| 2026-05-05 18:15 | 43.30396 | -2.90748 | 131 ft | 4 kts | 90° |
| 2026-05-05 18:15 | 43.30398 | -2.90764 | 131 ft | 1 kts | 116° |
| 2026-05-05 18:25 | 43.30397 | -2.90761 | 131 ft | 2 kts | 116° |
| 2026-05-05 18:26 | 43.30378 | -2.90710 | 131 ft | 10 kts | 116° |
| 2026-05-05 18:26 | 43.30345 | -2.90620 | 131 ft | 9 kts | 122° |
| 2026-05-05 18:26 | 43.30287 | -2.90557 | 131 ft | 12 kts | 144° |
| 2026-05-05 18:26 | 43.30205 | -2.90535 | 131 ft | 13 kts | 206° |
| 2026-05-05 18:27 | 43.30124 | -2.90567 | 131 ft | 13 kts | 154° |
| 2026-05-05 18:27 | 43.30079 | -2.90464 | 131 ft | 13 kts | 115° |
| 2026-05-05 18:27 | 43.30041 | -2.90359 | 131 ft | 12 kts | 116° |
| 2026-05-05 18:27 | 43.30003 | -2.90256 | 131 ft | 12 kts | 116° |
| 2026-05-05 18:28 | 43.29930 | -2.90057 | 131 ft | 11 kts | 116° |
| 2026-05-05 18:28 | 43.29895 | -2.89962 | 131 ft | 11 kts | 116° |
| 2026-05-05 18:28 | 43.29873 | -2.89901 | 131 ft | 11 kts | 117° |
| 2026-05-05 18:29 | 43.29829 | -2.89781 | 131 ft | 10 kts | 116° |
| 2026-05-05 18:29 | 43.29797 | -2.89695 | 131 ft | 10 kts | 116° |
| 2026-05-05 18:29 | 43.29766 | -2.89610 | 131 ft | 10 kts | 117° |
| 2026-05-05 18:29 | 43.29734 | -2.89529 | 129 ft | 10 kts | 119° |
| 2026-05-05 18:30 | 43.29700 | -2.89493 | 130 ft | 9 kts | 167° |
| 2026-05-05 18:30 | 43.29658 | -2.89544 | 128 ft | 9 kts | 266° |
| 2026-05-05 18:30 | 43.29640 | -2.89627 | 128 ft | 9 kts | 252° |
| 2026-05-05 18:30 | 43.29626 | -2.89708 | 130 ft | 9 kts | 260° |
| 2026-05-05 18:31 | 43.29642 | -2.89785 | 128 ft | 8 kts | 297° |
| 2026-05-05 18:31 | 43.29668 | -2.89855 | 130 ft | 8 kts | 295° |
| 2026-05-05 18:31 | 43.29688 | -2.89909 | 130 ft | 0 kts | 295° |
| 2026-05-05 18:32 | 43.29706 | -2.89961 | 126 ft | 25 kts | 296° |
| 2026-05-05 18:33 | 43.29889 | -2.90473 | 126 ft | 94 kts | 295° |
| 2026-05-05 18:33 | 43.30278 | -2.91520 | 133 ft | 149 kts | 295° |
| 2026-05-05 18:33 | 43.30763 | -2.92849 | 619 ft | 159 kts | 295° |
| 2026-05-05 18:33 | 43.31267 | -2.94188 | 1435 ft | 157 kts | 297° |
| 2026-05-05 18:34 | 43.31765 | -2.95567 | 2074 ft | 167 kts | 296° |
| 2026-05-05 18:34 | 43.32323 | -2.97071 | 2573 ft | 186 kts | 297° |
| 2026-05-05 18:34 | 43.33166 | -2.98475 | 3028 ft | 200 kts | 326° |
| 2026-05-05 18:34 | 43.34471 | -2.99254 | 3562 ft | 207 kts | 327° |
| 2026-05-05 18:35 | 43.35550 | -3.00545 | 4279 ft | 206 kts | 314° |
| 2026-05-05 18:35 | 43.36665 | -3.01797 | 4857 ft | 220 kts | 331° |
| 2026-05-05 18:35 | 43.38271 | -3.02272 | 4980 ft | 256 kts | 2° |
| 2026-05-05 18:35 | 43.40001 | -3.01480 | 5684 ft | 269 kts | 30° |
| 2026-05-05 18:36 | 43.41297 | -2.99611 | 6544 ft | 277 kts | 58° |
| 2026-05-05 18:36 | 43.41840 | -2.97029 | 7245 ft | 289 kts | 88° |
| 2026-05-05 18:36 | 43.41405 | -2.94338 | 8009 ft | 293 kts | 116° |
| 2026-05-05 18:36 | 43.40327 | -2.91947 | 8765 ft | 296 kts | 126° |
| 2026-05-05 18:37 | 43.39068 | -2.89679 | 9529 ft | 300 kts | 129° |
| 2026-05-05 18:37 | 43.37769 | -2.87431 | 10274 ft | 303 kts | 129° |
| 2026-05-05 18:37 | 43.36423 | -2.85090 | 10566 ft | 323 kts | 128° |
| 2026-05-05 18:37 | 43.34997 | -2.82569 | 10776 ft | 345 kts | 128° |
| 2026-05-05 18:38 | 43.33526 | -2.79927 | 11111 ft | 360 kts | 127° |
| 2026-05-05 18:38 | 43.32004 | -2.77160 | 11696 ft | 366 kts | 127° |
| 2026-05-05 18:38 | 43.30467 | -2.74340 | 12455 ft | 369 kts | 127° |
| 2026-05-05 18:38 | 43.28931 | -2.71508 | 13168 ft | 373 kts | 127° |
| 2026-05-05 18:39 | 43.27369 | -2.68621 | 13881 ft | 378 kts | 127° |
| 2026-05-05 18:39 | 43.25795 | -2.65709 | 14538 ft | 382 kts | 127° |
| 2026-05-05 18:39 | 43.24206 | -2.62769 | 15225 ft | 386 kts | 127° |
| 2026-05-05 18:39 | 43.22603 | -2.59804 | 15956 ft | 389 kts | 127° |
| 2026-05-05 18:40 | 43.20984 | -2.56811 | 16624 ft | 393 kts | 127° |
| 2026-05-05 18:40 | 43.19347 | -2.53788 | 17305 ft | 396 kts | 127° |
| 2026-05-05 18:40 | 43.17691 | -2.50735 | 17918 ft | 402 kts | 127° |
| 2026-05-05 18:40 | 43.16015 | -2.47649 | 18542 ft | 405 kts | 127° |
| 2026-05-05 18:41 | 43.14320 | -2.44530 | 19127 ft | 409 kts | 127° |
| 2026-05-05 18:41 | 43.12632 | -2.41428 | 19682 ft | 413 kts | 128° |
| 2026-05-05 18:41 | 43.10916 | -2.38277 | 20263 ft | 416 kts | 128° |
| 2026-05-05 18:41 | 43.09174 | -2.35082 | 20839 ft | 419 kts | 128° |
| 2026-05-05 18:42 | 43.07424 | -2.31875 | 21393 ft | 422 kts | 128° |
| 2026-05-05 18:42 | 43.05658 | -2.28644 | 21924 ft | 426 kts | 128° |
| 2026-05-05 18:42 | 43.03880 | -2.25392 | 22447 ft | 429 kts | 128° |
| 2026-05-05 18:42 | 43.02086 | -2.22115 | 22977 ft | 432 kts | 128° |
| 2026-05-05 18:43 | 43.00275 | -2.18813 | 23494 ft | 435 kts | 128° |
| 2026-05-05 18:43 | 42.98452 | -2.15491 | 23934 ft | 439 kts | 128° |
| 2026-05-05 18:43 | 42.96611 | -2.12140 | 24374 ft | 441 kts | 129° |
| 2026-05-05 18:43 | 42.94764 | -2.08782 | 24788 ft | 444 kts | 128° |
| 2026-05-05 18:44 | 42.92901 | -2.05397 | 25209 ft | 447 kts | 129° |
| 2026-05-05 18:44 | 42.91027 | -2.01998 | 25619 ft | 449 kts | 129° |
| 2026-05-05 18:44 | 42.89142 | -1.98582 | 26020 ft | 452 kts | 129° |
| 2026-05-05 18:44 | 42.87245 | -1.95148 | 26402 ft | 455 kts | 129° |
| 2026-05-05 18:45 | 42.85332 | -1.91690 | 26781 ft | 458 kts | 129° |
| 2026-05-05 18:45 | 42.83407 | -1.88214 | 27132 ft | 461 kts | 129° |
| 2026-05-05 18:45 | 42.81493 | -1.84762 | 27492 ft | 463 kts | 129° |
| 2026-05-05 18:45 | 42.79543 | -1.81247 | 27826 ft | 466 kts | 129° |
| 2026-05-05 18:46 | 42.77581 | -1.77713 | 28149 ft | 469 kts | 129° |
| 2026-05-05 18:46 | 42.75605 | -1.74161 | 28501 ft | 472 kts | 129° |
| 2026-05-05 18:46 | 42.73657 | -1.70575 | 28967 ft | 472 kts | 126° |
| 2026-05-05 18:46 | 42.72028 | -1.66699 | 29452 ft | 473 kts | 117° |
| 2026-05-05 18:47 | 42.70651 | -1.62627 | 29948 ft | 472 kts | 116° |
| 2026-05-05 18:47 | 42.69283 | -1.58549 | 29968 ft | 476 kts | 117° |
| 2026-05-05 18:47 | 42.66452 | -1.50433 | 29979 ft | 473 kts | 118° |
| 2026-05-05 18:48 | 42.63621 | -1.42374 | 29979 ft | 472 kts | 118° |
| 2026-05-05 18:48 | 42.60791 | -1.34330 | 29976 ft | 472 kts | 118° |
| 2026-05-05 18:49 | 42.57924 | -1.26299 | 29958 ft | 472 kts | 119° |
| 2026-05-05 18:49 | 42.55051 | -1.18284 | 29944 ft | 473 kts | 119° |
| 2026-05-05 18:50 | 42.52190 | -1.10308 | 29940 ft | 473 kts | 119° |
| 2026-05-05 18:50 | 42.49302 | -1.02275 | 29937 ft | 474 kts | 119° |
| 2026-05-05 18:51 | 42.46411 | -0.94243 | 29931 ft | 474 kts | 119° |
| 2026-05-05 18:51 | 42.43518 | -0.86214 | 29919 ft | 474 kts | 120° |
| 2026-05-05 18:52 | 42.40626 | -0.78197 | 29903 ft | 474 kts | 120° |
| 2026-05-05 18:52 | 42.37762 | -0.70249 | 29922 ft | 473 kts | 120° |
| 2026-05-05 18:53 | 42.34869 | -0.62235 | 29910 ft | 474 kts | 120° |
| 2026-05-05 18:53 | 42.31957 | -0.54214 | 29921 ft | 476 kts | 120° |
| 2026-05-05 18:54 | 42.29019 | -0.46195 | 29918 ft | 476 kts | 121° |
| 2026-05-05 18:54 | 42.26067 | -0.38163 | 29917 ft | 478 kts | 121° |
| 2026-05-05 18:55 | 42.23106 | -0.30114 | 29902 ft | 479 kts | 121° |
| 2026-05-05 18:55 | 42.20134 | -0.22059 | 29904 ft | 479 kts | 121° |
| 2026-05-05 18:56 | 42.17157 | -0.14014 | 29903 ft | 479 kts | 121° |
| 2026-05-05 18:56 | 42.14196 | -0.06031 | 29903 ft | 479 kts | 121° |
| 2026-05-05 18:57 | 42.11214 | 0.01989 | 29897 ft | 478 kts | 121° |
| 2026-05-05 18:57 | 42.08260 | 0.09922 | 29895 ft | 470 kts | 122° |
| 2026-05-05 18:58 | 42.05324 | 0.17774 | 29905 ft | 470 kts | 122° |
| 2026-05-05 18:58 | 42.03854 | 0.21701 | 29555 ft | 472 kts | 122° |
| 2026-05-05 18:58 | 42.02390 | 0.25619 | 29112 ft | 465 kts | 122° |
| 2026-05-05 18:59 | 42.00948 | 0.29481 | 28643 ft | 459 kts | 122° |
| 2026-05-05 18:59 | 41.99516 | 0.33302 | 28145 ft | 454 kts | 122° |
| 2026-05-05 18:59 | 41.98111 | 0.37051 | 27925 ft | 443 kts | 121° |
| 2026-05-05 18:59 | 41.96884 | 0.40781 | 27450 ft | 443 kts | 116° |
| 2026-05-05 19:00 | 41.95851 | 0.44669 | 27016 ft | 441 kts | 113° |
| 2026-05-05 19:00 | 41.94906 | 0.48575 | 26553 ft | 438 kts | 112° |
| 2026-05-05 19:00 | 41.93984 | 0.52456 | 26113 ft | 434 kts | 112° |
| 2026-05-05 19:00 | 41.93054 | 0.56298 | 25676 ft | 430 kts | 113° |
| 2026-05-05 19:01 | 41.92113 | 0.60087 | 25246 ft | 427 kts | 113° |
| 2026-05-05 19:01 | 41.91159 | 0.63848 | 24808 ft | 423 kts | 114° |
| 2026-05-05 19:01 | 41.90204 | 0.67567 | 24383 ft | 419 kts | 114° |
| 2026-05-05 19:01 | 41.89252 | 0.71250 | 23962 ft | 416 kts | 114° |
| 2026-05-05 19:02 | 41.88304 | 0.74902 | 23525 ft | 413 kts | 114° |
| 2026-05-05 19:02 | 41.87353 | 0.78554 | 23041 ft | 418 kts | 114° |
| 2026-05-05 19:02 | 41.86378 | 0.82282 | 22581 ft | 426 kts | 114° |
| 2026-05-05 19:02 | 41.85397 | 0.86042 | 22151 ft | 427 kts | 114° |
| 2026-05-05 19:03 | 41.84420 | 0.89794 | 21700 ft | 423 kts | 113° |
| 2026-05-05 19:03 | 41.83455 | 0.93499 | 21286 ft | 419 kts | 113° |
| 2026-05-05 19:03 | 41.82497 | 0.97169 | 20857 ft | 416 kts | 113° |
| 2026-05-05 19:03 | 41.81541 | 1.00823 | 20429 ft | 414 kts | 113° |
| 2026-05-05 19:04 | 41.80601 | 1.04405 | 20020 ft | 412 kts | 112° |
| 2026-05-05 19:04 | 41.79654 | 1.08013 | 19617 ft | 410 kts | 112° |
| 2026-05-05 19:04 | 41.78705 | 1.11617 | 19204 ft | 409 kts | 112° |
| 2026-05-05 19:04 | 41.77761 | 1.15199 | 18801 ft | 408 kts | 112° |
| 2026-05-05 19:05 | 41.76814 | 1.18781 | 18390 ft | 407 kts | 112° |
| 2026-05-05 19:05 | 41.75871 | 1.22346 | 17945 ft | 406 kts | 112° |
| 2026-05-05 19:05 | 41.74929 | 1.25901 | 17482 ft | 404 kts | 112° |
| 2026-05-05 19:05 | 41.73991 | 1.29439 | 17102 ft | 400 kts | 112° |
| 2026-05-05 19:06 | 41.73064 | 1.32934 | 16720 ft | 397 kts | 112° |
| 2026-05-05 19:06 | 41.72141 | 1.36404 | 16309 ft | 395 kts | 112° |
| 2026-05-05 19:06 | 41.71222 | 1.39858 | 15905 ft | 393 kts | 112° |
| 2026-05-05 19:06 | 41.70305 | 1.43297 | 15507 ft | 391 kts | 112° |
| 2026-05-05 19:07 | 41.69390 | 1.46721 | 15105 ft | 390 kts | 112° |
| 2026-05-05 19:07 | 41.68477 | 1.50136 | 14706 ft | 388 kts | 112° |
| 2026-05-05 19:07 | 41.67550 | 1.53454 | 14424 ft | 383 kts | 113° |
| 2026-05-05 19:07 | 41.66583 | 1.56772 | 14191 ft | 383 kts | 114° |
| 2026-05-05 19:08 | 41.65603 | 1.60089 | 13950 ft | 384 kts | 114° |
| 2026-05-05 19:08 | 41.64622 | 1.63408 | 13705 ft | 383 kts | 114° |
| 2026-05-05 19:08 | 41.63646 | 1.66722 | 13430 ft | 382 kts | 114° |
| 2026-05-05 19:08 | 41.62674 | 1.70026 | 13162 ft | 381 kts | 114° |
| 2026-05-05 19:09 | 41.61706 | 1.73324 | 12905 ft | 381 kts | 113° |
| 2026-05-05 19:09 | 41.60742 | 1.76611 | 12642 ft | 380 kts | 113° |
| 2026-05-05 19:09 | 41.59779 | 1.79893 | 12392 ft | 379 kts | 113° |
| 2026-05-05 19:09 | 41.58816 | 1.83170 | 12121 ft | 377 kts | 113° |
| 2026-05-05 19:10 | 41.57863 | 1.86413 | 11845 ft | 373 kts | 113° |
| 2026-05-05 19:10 | 41.56917 | 1.89627 | 11612 ft | 370 kts | 113° |
| 2026-05-05 19:10 | 41.55977 | 1.92816 | 11340 ft | 368 kts | 113° |
| 2026-05-05 19:10 | 41.55042 | 1.95984 | 11091 ft | 365 kts | 113° |
| 2026-05-05 19:11 | 41.54112 | 1.99129 | 10851 ft | 364 kts | 113° |
| 2026-05-05 19:11 | 41.53183 | 2.02271 | 10598 ft | 363 kts | 113° |
| 2026-05-05 19:11 | 41.52256 | 2.05398 | 10359 ft | 362 kts | 113° |
| 2026-05-05 19:11 | 41.51331 | 2.08520 | 10115 ft | 362 kts | 113° |
| 2026-05-05 19:12 | 41.50404 | 2.11640 | 9866 ft | 361 kts | 113° |
| 2026-05-05 19:12 | 41.49481 | 2.14746 | 9613 ft | 360 kts | 112° |
| 2026-05-05 19:12 | 41.48557 | 2.17853 | 9351 ft | 360 kts | 112° |
| 2026-05-05 19:12 | 41.47634 | 2.20952 | 9092 ft | 359 kts | 112° |
| 2026-05-05 19:13 | 41.46723 | 2.24006 | 8831 ft | 358 kts | 112° |
| 2026-05-05 19:13 | 41.45809 | 2.27081 | 8677 ft | 353 kts | 111° |
| 2026-05-05 19:13 | 41.45367 | 2.30277 | 8673 ft | 354 kts | 89° |
| 2026-05-05 19:13 | 41.45795 | 2.33507 | 8678 ft | 357 kts | 69° |
| 2026-05-05 19:14 | 41.46785 | 2.36538 | 8455 ft | 358 kts | 64° |
| 2026-05-05 19:14 | 41.47848 | 2.39517 | 8124 ft | 355 kts | 63° |
| 2026-05-05 19:14 | 41.48898 | 2.42470 | 7765 ft | 347 kts | 64° |
| 2026-05-05 19:14 | 41.49901 | 2.45356 | 7192 ft | 340 kts | 64° |
| 2026-05-05 19:15 | 41.50882 | 2.48216 | 6399 ft | 339 kts | 64° |
| 2026-05-05 19:15 | 41.51858 | 2.51076 | 5645 ft | 336 kts | 64° |
| 2026-05-05 19:15 | 41.52818 | 2.53898 | 5315 ft | 327 kts | 64° |
| 2026-05-05 19:15 | 41.53743 | 2.56572 | 5160 ft | 307 kts | 64° |
| 2026-05-05 19:16 | 41.54629 | 2.59071 | 5016 ft | 289 kts | 63° |
| 2026-05-05 19:16 | 41.55189 | 2.60649 | 4972 ft | 276 kts | 65° |
| 2026-05-05 19:16 | 41.55516 | 2.63061 | 4962 ft | 258 kts | 99° |
| 2026-05-05 19:16 | 41.54870 | 2.65209 | 4967 ft | 247 kts | 127° |
| 2026-05-05 19:17 | 41.53677 | 2.66797 | 4771 ft | 240 kts | 149° |
| 2026-05-05 19:17 | 41.52153 | 2.67649 | 4443 ft | 237 kts | 173° |
| 2026-05-05 19:17 | 41.50542 | 2.67631 | 4321 ft | 225 kts | 196° |
| 2026-05-05 19:17 | 41.49237 | 2.66706 | 4281 ft | 209 kts | 233° |
| 2026-05-05 19:18 | 41.48774 | 2.64971 | 4277 ft | 206 kts | 275° |
| 2026-05-05 19:18 | 41.48524 | 2.63055 | 4275 ft | 212 kts | 248° |
| 2026-05-05 19:18 | 41.47885 | 2.61299 | 4499 ft | 215 kts | 244° |